Airfield :
LOGIN :

Register | Disclaimer

   EN    FR    IT 

 










Legend :    VFR   Marginal VFR   IFR   Intensive IFR   Very Intensive IFR
Visi :
Ceiling :
>= 8 km
>= 3000ft
5 to 8 km
1000 to 3000 ft
1500m to 5 km
500 to 1000 ft
800 to 1500m
200 to 500 ft
< 800m
< 200 ft
Symbols :   Thunderstorms  Fog  Heavy snow  Heavy precipitations  Wind > 20 kt
SIGMETs :     Misc.  Thunderstorms  Icing  Turbulence  Mountain Waves  Volcanic Ashes







- Airport Elevation : 23 ft
- IATA code : XFW


EDHI - Hamburg Finkenwerder

CURRENT METAR :
  • 101350Z 28017G28KT 9999 -SHRA SCT024 BKN053 05/02 Q1010

EXPIRED METARs :
  • 101320Z 29016KT 9999 VCSH SCT020CB SCT025 05/02 Q1011
  • 101250Z 28015KT 9999 VCSH SCT018CB BKN038 05/02 Q1010
  • 101220Z 28018G30KT 9999 -SHRA SCT014CB BKN021 05/02 Q1011
  • 101150Z 29014KT 260V360 9999 -SHRA SCT019CB BKN029 05/01 Q1011
  • 101120Z 31008KT 260V360 9999 -SHRA SCT017CB BKN046 05/02 Q1011

TAF TAF EDHI
Valid from the 10 at 12:00 until the 10 at 21:00 UTC


101100Z 1012/1021 29013KT 9999 SCT030
TEMPO 1012/1018 29015G25KT
PROB30
TEMPO 1012/1016 30020G35KT 4000 SHRAGS BKN013CB
No reported NOTAMs for that airfield.



MET'MAP, your aeronautical weather chart ! - Copyright ORBIFLY December 2007 - Disclaimer

ORBIFLY MET'MAP TEAM :

Programming & Development : Alexandra Zaïnal
Concept & Development : Baudouin d'Aumeries
Co-Development & Prog : Marc-Olivier Méhu
Technical & hardware support : Manuel Goepfert

Contact : metmap@orbifly.com




SOURCES & CREDITS :

   NOAA